sensor_id;sensor_type;location;lat;lon;timestamp;temperature;humidity
48043;DHT22;33988;47.992;8.820;2022-09-01T00:00:09;19.20;60.90
48043;DHT22;33988;47.992;8.820;2022-09-01T00:02:39;19.20;61.00
48043;DHT22;33988;47.992;8.820;2022-09-01T00:05:08;19.10;61.00
48043;DHT22;33988;47.992;8.820;2022-09-01T00:07:36;19.10;61.00
48043;DHT22;33988;47.992;8.820;2022-09-01T00:10:06;19.10;60.90
48043;DHT22;33988;47.992;8.820;2022-09-01T00:12:34;19.10;61.70
48043;DHT22;33988;47.992;8.820;2022-09-01T00:15:08;18.80;60.90
48043;DHT22;33988;47.992;8.820;2022-09-01T00:17:36;19.00;60.80
48043;DHT22;33988;47.992;8.820;2022-09-01T00:20:06;19.00;60.70
48043;DHT22;33988;47.992;8.820;2022-09-01T00:22:34;19.00;60.70
48043;DHT22;33988;47.992;8.820;2022-09-01T00:25:01;18.90;60.80
48043;DHT22;33988;47.992;8.820;2022-09-01T00:27:29;18.90;60.80
48043;DHT22;33988;47.992;8.820;2022-09-01T00:29:57;18.90;60.90
48043;DHT22;33988;47.992;8.820;2022-09-01T00:32:26;18.90;60.90
48043;DHT22;33988;47.992;8.820;2022-09-01T00:34:56;18.80;60.90
48043;DHT22;33988;47.992;8.820;2022-09-01T00:37:26;18.80;60.90
48043;DHT22;33988;47.992;8.820;2022-09-01T00:39:53;18.80;61.00
48043;DHT22;33988;47.992;8.820;2022-09-01T00:42:19;18.80;61.00
48043;DHT22;33988;47.992;8.820;2022-09-01T00:44:47;18.80;61.10
48043;DHT22;33988;47.992;8.820;2022-09-01T00:47:16;18.70;61.20
48043;DHT22;33988;47.992;8.820;2022-09-01T00:49:48;18.70;61.20
48043;DHT22;33988;47.992;8.820;2022-09-01T00:52:32;18.70;61.40
48043;DHT22;33988;47.992;8.820;2022-09-01T00:55:12;18.70;61.60
48043;DHT22;33988;47.992;8.820;2022-09-01T00:57:44;18.70;61.60
48043;DHT22;33988;47.992;8.820;2022-09-01T01:00:24;18.70;61.50
48043;DHT22;33988;47.992;8.820;2022-09-01T01:02:52;18.70;61.80
48043;DHT22;33988;47.992;8.820;2022-09-01T01:05:28;18.60;61.60
48043;DHT22;33988;47.992;8.820;2022-09-01T01:08:03;18.70;61.70
48043;DHT22;33988;47.992;8.820;2022-09-01T01:10:39;18.60;61.70
48043;DHT22;33988;47.992;8.820;2022-09-01T01:13:15;18.70;61.80
48043;DHT22;33988;47.992;8.820;2022-09-01T01:15:46;18.60;61.90
48043;DHT22;33988;47.992;8.820;2022-09-01T01:18:14;18.60;61.80
48043;DHT22;33988;47.992;8.820;2022-09-01T01:21:05;18.60;61.80
48043;DHT22;33988;47.992;8.820;2022-09-01T01:24:07;18.60;61.90
48043;DHT22;33988;47.992;8.820;2022-09-01T01:26:54;18.60;62.00
48043;DHT22;33988;47.992;8.820;2022-09-01T01:29:31;18.60;62.00
48043;DHT22;33988;47.992;8.820;2022-09-01T01:31:59;18.60;62.10
48043;DHT22;33988;47.992;8.820;2022-09-01T01:34:29;18.60;62.00
48043;DHT22;33988;47.992;8.820;2022-09-01T01:36:57;18.60;62.10
48043;DHT22;33988;47.992;8.820;2022-09-01T01:39:25;18.60;62.20
48043;DHT22;33988;47.992;8.820;2022-09-01T01:41:57;18.60;62.20
48043;DHT22;33988;47.992;8.820;2022-09-01T01:44:27;18.60;62.30
48043;DHT22;33988;47.992;8.820;2022-09-01T01:46:55;18.60;62.30
48043;DHT22;33988;47.992;8.820;2022-09-01T01:49:27;18.60;62.40
48043;DHT22;33988;47.992;8.820;2022-09-01T01:51:56;18.60;62.40
48043;DHT22;33988;47.992;8.820;2022-09-01T01:54:24;18.60;62.30
48043;DHT22;33988;47.992;8.820;2022-09-01T01:56:53;18.60;62.30
48043;DHT22;33988;47.992;8.820;2022-09-01T01:59:21;18.60;62.30
48043;DHT22;33988;47.992;8.820;2022-09-01T02:01:52;18.60;62.30
48043;DHT22;33988;47.992;8.820;2022-09-01T02:04:22;18.60;62.40
48043;DHT22;33988;47.992;8.820;2022-09-01T02:06:49;18.60;62.40
48043;DHT22;33988;47.992;8.820;2022-09-01T02:09:19;18.60;62.40
48043;DHT22;33988;47.992;8.820;2022-09-01T02:11:49;18.60;62.50
48043;DHT22;33988;47.992;8.820;2022-09-01T02:14:22;18.60;62.50
48043;DHT22;33988;47.992;8.820;2022-09-01T02:16:52;18.60;62.70
48043;DHT22;33988;47.992;8.820;2022-09-01T02:19:21;18.60;62.70
48043;DHT22;33988;47.992;8.820;2022-09-01T02:21:48;18.60;63.60
48043;DHT22;33988;47.992;8.820;2022-09-01T02:24:24;18.60;62.80
48043;DHT22;33988;47.992;8.820;2022-09-01T02:26:57;18.60;62.80
48043;DHT22;33988;47.992;8.820;2022-09-01T02:29:26;18.70;63.00
48043;DHT22;33988;47.992;8.820;2022-09-01T02:31:55;18.70;63.00
48043;DHT22;33988;47.992;8.820;2022-09-01T02:34:24;18.70;63.10
48043;DHT22;33988;47.992;8.820;2022-09-01T02:36:55;18.80;63.20
48043;DHT22;33988;47.992;8.820;2022-09-01T02:39:29;18.80;63.30
48043;DHT22;33988;47.992;8.820;2022-09-01T02:42:02;18.80;63.40
48043;DHT22;33988;47.992;8.820;2022-09-01T02:44:29;18.80;63.40
48043;DHT22;33988;47.992;8.820;2022-09-01T02:46:57;18.90;63.50
48043;DHT22;33988;47.992;8.820;2022-09-01T02:49:25;18.90;63.60
48043;DHT22;33988;47.992;8.820;2022-09-01T02:51:57;18.90;63.60
48043;DHT22;33988;47.992;8.820;2022-09-01T02:54:31;19.00;63.70
48043;DHT22;33988;47.992;8.820;2022-09-01T02:56:58;19.00;63.60
48043;DHT22;33988;47.992;8.820;2022-09-01T02:59:27;19.00;63.60
48043;DHT22;33988;47.992;8.820;2022-09-01T03:01:55;19.10;63.60
48043;DHT22;33988;47.992;8.820;2022-09-01T03:04:29;19.10;63.70
48043;DHT22;33988;47.992;8.820;2022-09-01T03:07:04;19.10;63.80
48043;DHT22;33988;47.992;8.820;2022-09-01T03:09:31;19.10;63.80
48043;DHT22;33988;47.992;8.820;2022-09-01T03:12:05;19.20;64.00
48043;DHT22;33988;47.992;8.820;2022-09-01T03:14:32;19.20;64.00
48043;DHT22;33988;47.992;8.820;2022-09-01T03:16:59;19.30;64.00
48043;DHT22;33988;47.992;8.820;2022-09-01T03:19:27;19.30;64.00
48043;DHT22;33988;47.992;8.820;2022-09-01T03:22:05;19.30;63.90
48043;DHT22;33988;47.992;8.820;2022-09-01T03:24:33;19.30;63.90
48043;DHT22;33988;47.992;8.820;2022-09-01T03:27:02;19.40;63.80
48043;DHT22;33988;47.992;8.820;2022-09-01T03:29:30;19.40;63.70
48043;DHT22;33988;47.992;8.820;2022-09-01T03:31:59;19.40;63.70
48043;DHT22;33988;47.992;8.820;2022-09-01T03:34:26;19.50;64.50
48043;DHT22;33988;47.992;8.820;2022-09-01T03:36:56;19.50;63.70
48043;DHT22;33988;47.992;8.820;2022-09-01T03:39:25;19.50;63.70
48043;DHT22;33988;47.992;8.820;2022-09-01T03:41:52;19.60;63.60
48043;DHT22;33988;47.992;8.820;2022-09-01T03:44:19;19.60;63.60
48043;DHT22;33988;47.992;8.820;2022-09-01T03:46:46;19.60;63.60
48043;DHT22;33988;47.992;8.820;2022-09-01T03:49:13;19.60;63.60
48043;DHT22;33988;47.992;8.820;2022-09-01T03:51:42;19.60;63.50
48043;DHT22;33988;47.992;8.820;2022-09-01T03:54:10;19.60;63.40
48043;DHT22;33988;47.992;8.820;2022-09-01T03:56:38;19.60;63.50
48043;DHT22;33988;47.992;8.820;2022-09-01T03:59:06;19.60;63.40
48043;DHT22;33988;47.992;8.820;2022-09-01T04:01:34;19.70;63.40
48043;DHT22;33988;47.992;8.820;2022-09-01T04:04:10;19.70;63.40
48043;DHT22;33988;47.992;8.820;2022-09-01T04:06:40;19.70;63.40
48043;DHT22;33988;47.992;8.820;2022-09-01T04:09:09;19.70;63.40
48043;DHT22;33988;47.992;8.820;2022-09-01T04:11:39;19.70;63.40
48043;DHT22;33988;47.992;8.820;2022-09-01T04:14:11;19.70;63.40
48043;DHT22;33988;47.992;8.820;2022-09-01T04:16:38;19.70;63.40
48043;DHT22;33988;47.992;8.820;2022-09-01T04:19:25;19.80;63.40
48043;DHT22;33988;47.992;8.820;2022-09-01T04:21:57;19.80;63.30
48043;DHT22;33988;47.992;8.820;2022-09-01T04:24:29;19.60;63.40
48043;DHT22;33988;47.992;8.820;2022-09-01T04:26:58;19.70;63.20
48043;DHT22;33988;47.992;8.820;2022-09-01T04:29:28;19.50;63.30
48043;DHT22;33988;47.992;8.820;2022-09-01T04:32:08;19.70;63.10
48043;DHT22;33988;47.992;8.820;2022-09-01T04:34:39;19.70;63.10
48043;DHT22;33988;47.992;8.820;2022-09-01T04:37:11;19.80;63.10
48043;DHT22;33988;47.992;8.820;2022-09-01T04:39:46;19.80;63.00
48043;DHT22;33988;47.992;8.820;2022-09-01T04:42:24;19.80;63.00
48043;DHT22;33988;47.992;8.820;2022-09-01T04:44:53;19.80;63.10
48043;DHT22;33988;47.992;8.820;2022-09-01T04:47:26;19.80;63.10
48043;DHT22;33988;47.992;8.820;2022-09-01T04:50:04;19.80;63.20
48043;DHT22;33988;47.992;8.820;2022-09-01T04:52:40;19.80;63.00
48043;DHT22;33988;47.992;8.820;2022-09-01T04:55:12;19.80;63.00
48043;DHT22;33988;47.992;8.820;2022-09-01T04:57:45;19.90;63.10
48043;DHT22;33988;47.992;8.820;2022-09-01T05:00:19;19.90;63.10
48043;DHT22;33988;47.992;8.820;2022-09-01T05:02:54;19.90;63.10
48043;DHT22;33988;47.992;8.820;2022-09-01T05:05:42;19.90;63.10
48043;DHT22;33988;47.992;8.820;2022-09-01T05:08:14;19.90;63.20
48043;DHT22;33988;47.992;8.820;2022-09-01T05:10:52;19.90;63.00
48043;DHT22;33988;47.992;8.820;2022-09-01T05:13:23;19.90;63.10
48043;DHT22;33988;47.992;8.820;2022-09-01T05:16:00;19.90;62.90
48043;DHT22;33988;47.992;8.820;2022-09-01T05:18:30;19.90;63.00
48043;DHT22;33988;47.992;8.820;2022-09-01T05:21:03;19.90;63.00
48043;DHT22;33988;47.992;8.820;2022-09-01T05:23:37;19.90;63.00
48043;DHT22;33988;47.992;8.820;2022-09-01T05:26:12;19.90;63.00
48043;DHT22;33988;47.992;8.820;2022-09-01T05:28:47;19.90;63.00
48043;DHT22;33988;47.992;8.820;2022-09-01T05:31:15;19.90;63.00
48043;DHT22;33988;47.992;8.820;2022-09-01T05:33:49;20.00;63.10
48043;DHT22;33988;47.992;8.820;2022-09-01T05:36:19;20.00;63.10
48043;DHT22;33988;47.992;8.820;2022-09-01T05:38:49;20.00;63.10
48043;DHT22;33988;47.992;8.820;2022-09-01T05:41:19;20.00;63.10
48043;DHT22;33988;47.992;8.820;2022-09-01T05:43:53;20.00;63.00
48043;DHT22;33988;47.992;8.820;2022-09-01T05:46:26;20.00;63.00
48043;DHT22;33988;47.992;8.820;2022-09-01T05:48:57;20.00;63.00
48043;DHT22;33988;47.992;8.820;2022-09-01T05:51:28;20.00;62.80
48043;DHT22;33988;47.992;8.820;2022-09-01T05:54:18;20.00;63.00
48043;DHT22;33988;47.992;8.820;2022-09-01T05:56:48;20.10;63.00
48043;DHT22;33988;47.992;8.820;2022-09-01T05:59:19;20.10;62.80
48043;DHT22;33988;47.992;8.820;2022-09-01T06:01:52;20.10;62.80
48043;DHT22;33988;47.992;8.820;2022-09-01T06:04:26;20.10;62.80
48043;DHT22;33988;47.992;8.820;2022-09-01T06:06:53;20.20;62.90
48043;DHT22;33988;47.992;8.820;2022-09-01T06:09:39;20.10;62.80
48043;DHT22;33988;47.992;8.820;2022-09-01T06:12:09;20.20;62.80
48043;DHT22;33988;47.992;8.820;2022-09-01T06:14:44;20.20;62.60
48043;DHT22;33988;47.992;8.820;2022-09-01T06:17:15;20.20;62.50
48043;DHT22;33988;47.992;8.820;2022-09-01T06:19:45;20.20;62.40
48043;DHT22;33988;47.992;8.820;2022-09-01T06:22:14;20.20;62.30
48043;DHT22;33988;47.992;8.820;2022-09-01T06:24:42;20.30;62.20
48043;DHT22;33988;47.992;8.820;2022-09-01T06:27:13;20.30;62.10
48043;DHT22;33988;47.992;8.820;2022-09-01T06:29:44;20.30;62.00
48043;DHT22;33988;47.992;8.820;2022-09-01T06:32:11;20.30;62.00
48043;DHT22;33988;47.992;8.820;2022-09-01T06:34:42;20.30;62.00
48043;DHT22;33988;47.992;8.820;2022-09-01T06:37:19;20.30;61.90
48043;DHT22;33988;47.992;8.820;2022-09-01T06:39:48;20.30;61.90
48043;DHT22;33988;47.992;8.820;2022-09-01T06:42:16;20.30;62.00
48043;DHT22;33988;47.992;8.820;2022-09-01T06:44:45;20.40;61.90
48043;DHT22;33988;47.992;8.820;2022-09-01T06:47:12;20.40;61.90
48043;DHT22;33988;47.992;8.820;2022-09-01T06:49:41;20.50;61.90
48043;DHT22;33988;47.992;8.820;2022-09-01T06:52:08;20.50;61.90
48043;DHT22;33988;47.992;8.820;2022-09-01T06:54:36;20.50;61.70
48043;DHT22;33988;47.992;8.820;2022-09-01T06:57:09;20.60;61.70
48043;DHT22;33988;47.992;8.820;2022-09-01T06:59:56;20.60;61.70
48043;DHT22;33988;47.992;8.820;2022-09-01T07:02:23;20.70;62.40
48043;DHT22;33988;47.992;8.820;2022-09-01T07:05:11;20.70;61.40
48043;DHT22;33988;47.992;8.820;2022-09-01T07:08:04;20.70;61.50
48043;DHT22;33988;47.992;8.820;2022-09-01T07:10:56;20.80;60.90
48043;DHT22;33988;47.992;8.820;2022-09-01T07:13:44;20.70;60.70
48043;DHT22;33988;47.992;8.820;2022-09-01T07:16:37;20.80;60.70
48043;DHT22;33988;47.992;8.820;2022-09-01T07:19:20;20.80;60.70
48043;DHT22;33988;47.992;8.820;2022-09-01T07:21:47;20.80;60.70
48043;DHT22;33988;47.992;8.820;2022-09-01T07:24:34;20.80;61.20
48043;DHT22;33988;47.992;8.820;2022-09-01T07:27:04;20.80;60.50
48043;DHT22;33988;47.992;8.820;2022-09-01T07:29:35;20.90;60.80
48043;DHT22;33988;47.992;8.820;2022-09-01T07:32:02;20.90;60.90
48043;DHT22;33988;47.992;8.820;2022-09-01T07:34:53;21.10;61.30
48043;DHT22;33988;47.992;8.820;2022-09-01T07:37:20;21.20;61.00
48043;DHT22;33988;47.992;8.820;2022-09-01T07:40:12;21.30;60.40
48043;DHT22;33988;47.992;8.820;2022-09-01T07:43:18;21.40;59.80
48043;DHT22;33988;47.992;8.820;2022-09-01T07:45:55;21.40;59.50
48043;DHT22;33988;47.992;8.820;2022-09-01T07:48:27;21.60;59.70
48043;DHT22;33988;47.992;8.820;2022-09-01T07:51:16;21.60;59.70
48043;DHT22;33988;47.992;8.820;2022-09-01T07:54:04;21.70;59.40
48043;DHT22;33988;47.992;8.820;2022-09-01T07:56:31;21.70;59.50
48043;DHT22;33988;47.992;8.820;2022-09-01T07:59:07;21.80;59.10
48043;DHT22;33988;47.992;8.820;2022-09-01T08:01:43;21.90;59.00
48043;DHT22;33988;47.992;8.820;2022-09-01T08:04:10;22.00;59.10
48043;DHT22;33988;47.992;8.820;2022-09-01T08:06:38;22.10;59.20
48043;DHT22;33988;47.992;8.820;2022-09-01T08:09:06;22.30;59.00
48043;DHT22;33988;47.992;8.820;2022-09-01T08:11:53;22.50;59.00
48043;DHT22;33988;47.992;8.820;2022-09-01T08:14:28;22.70;58.60
48043;DHT22;33988;47.992;8.820;2022-09-01T08:17:00;23.00;58.70
48043;DHT22;33988;47.992;8.820;2022-09-01T08:19:42;23.30;58.40
48043;DHT22;33988;47.992;8.820;2022-09-01T08:22:10;23.40;58.00
48043;DHT22;33988;47.992;8.820;2022-09-01T08:24:36;23.70;57.40
48043;DHT22;33988;47.992;8.820;2022-09-01T08:27:03;23.80;56.90
48043;DHT22;33988;47.992;8.820;2022-09-01T08:29:31;24.00;56.50
48043;DHT22;33988;47.992;8.820;2022-09-01T08:31:58;24.20;56.40
48043;DHT22;33988;47.992;8.820;2022-09-01T08:34:31;24.30;56.40
48043;DHT22;33988;47.992;8.820;2022-09-01T08:36:59;24.60;56.00
48043;DHT22;33988;47.992;8.820;2022-09-01T08:39:29;24.90;55.90
48043;DHT22;33988;47.992;8.820;2022-09-01T08:41:57;25.20;55.60
48043;DHT22;33988;47.992;8.820;2022-09-01T08:44:40;25.50;55.20
48043;DHT22;33988;47.992;8.820;2022-09-01T08:47:14;25.70;54.70
48043;DHT22;33988;47.992;8.820;2022-09-01T08:49:59;26.00;53.60
48043;DHT22;33988;47.992;8.820;2022-09-01T08:52:34;26.30;53.10
48043;DHT22;33988;47.992;8.820;2022-09-01T08:55:23;26.50;52.00
48043;DHT22;33988;47.992;8.820;2022-09-01T08:57:56;26.70;51.50
48043;DHT22;33988;47.992;8.820;2022-09-01T09:00:28;26.90;51.50
48043;DHT22;33988;47.992;8.820;2022-09-01T09:08:46;27.00;50.90
48043;DHT22;33988;47.992;8.820;2022-09-01T09:14:00;27.20;49.80
48043;DHT22;33988;47.992;8.820;2022-09-01T09:16:47;27.30;49.60
48043;DHT22;33988;47.992;8.820;2022-09-01T09:22:05;27.30;48.80
48043;DHT22;33988;47.992;8.820;2022-09-01T09:24:47;27.30;49.40
48043;DHT22;33988;47.992;8.820;2022-09-01T09:27:32;27.30;49.00
48043;DHT22;33988;47.992;8.820;2022-09-01T09:30:07;27.30;48.70
48043;DHT22;33988;47.992;8.820;2022-09-01T09:32:59;27.40;49.10
48043;DHT22;33988;47.992;8.820;2022-09-01T09:35:51;27.40;48.50
48043;DHT22;33988;47.992;8.820;2022-09-01T09:38:22;27.40;48.30
48043;DHT22;33988;47.992;8.820;2022-09-01T09:41:04;27.40;48.30
48043;DHT22;33988;47.992;8.820;2022-09-01T09:43:57;27.40;47.80
48043;DHT22;33988;47.992;8.820;2022-09-01T09:46:38;27.30;48.40
48043;DHT22;33988;47.992;8.820;2022-09-01T09:55:27;27.20;47.60
48043;DHT22;33988;47.992;8.820;2022-09-01T09:58:00;27.00;47.10
48043;DHT22;33988;47.992;8.820;2022-09-01T10:00:30;26.90;47.50
48043;DHT22;33988;47.992;8.820;2022-09-01T10:03:04;26.90;48.00
48043;DHT22;33988;47.992;8.820;2022-09-01T10:05:44;26.90;47.90
48043;DHT22;33988;47.992;8.820;2022-09-01T10:11:03;26.80;47.50
48043;DHT22;33988;47.992;8.820;2022-09-01T10:13:33;26.60;48.30
48043;DHT22;33988;47.992;8.820;2022-09-01T10:16:21;26.80;48.90
48043;DHT22;33988;47.992;8.820;2022-09-01T10:18:59;26.90;48.70
48043;DHT22;33988;47.992;8.820;2022-09-01T10:21:31;27.00;48.90
48043;DHT22;33988;47.992;8.820;2022-09-01T10:27:02;27.10;48.70
48043;DHT22;33988;47.992;8.820;2022-09-01T10:32:20;27.20;48.00
48043;DHT22;33988;47.992;8.820;2022-09-01T10:35:03;27.10;47.80
48043;DHT22;33988;47.992;8.820;2022-09-01T10:37:35;27.20;47.50
48043;DHT22;33988;47.992;8.820;2022-09-01T10:42:51;27.20;47.70
48043;DHT22;33988;47.992;8.820;2022-09-01T10:45:35;27.30;48.30
48043;DHT22;33988;47.992;8.820;2022-09-01T10:48:31;27.40;47.50
48043;DHT22;33988;47.992;8.820;2022-09-01T11:02:17;27.30;47.80
48043;DHT22;33988;47.992;8.820;2022-09-01T11:07:34;27.20;47.80
48043;DHT22;33988;47.992;8.820;2022-09-01T11:10:37;27.20;47.50
48043;DHT22;33988;47.992;8.820;2022-09-01T11:22:26;27.30;47.80
48043;DHT22;33988;47.992;8.820;2022-09-01T11:28:35;27.40;47.50
48043;DHT22;33988;47.992;8.820;2022-09-01T11:33:49;27.40;47.10
48043;DHT22;33988;47.992;8.820;2022-09-01T11:42:00;27.50;46.30
48043;DHT22;33988;47.992;8.820;2022-09-01T11:44:58;27.50;46.60
48043;DHT22;33988;47.992;8.820;2022-09-01T11:47:41;27.50;45.80
48043;DHT22;33988;47.992;8.820;2022-09-01T11:52:59;27.50;46.50
48043;DHT22;33988;47.992;8.820;2022-09-01T11:55:49;27.40;46.40
48043;DHT22;33988;47.992;8.820;2022-09-01T12:00:55;27.30;45.70
48043;DHT22;33988;47.992;8.820;2022-09-01T12:03:41;27.20;46.00
48043;DHT22;33988;47.992;8.820;2022-09-01T12:06:12;27.10;46.30
48043;DHT22;33988;47.992;8.820;2022-09-01T12:09:00;27.00;46.50
48043;DHT22;33988;47.992;8.820;2022-09-01T12:11:32;26.90;46.10
48043;DHT22;33988;47.992;8.820;2022-09-01T12:14:10;26.80;46.40
48043;DHT22;33988;47.992;8.820;2022-09-01T12:16:59;26.70;46.70
48043;DHT22;33988;47.992;8.820;2022-09-01T12:19:32;26.70;47.40
48043;DHT22;33988;47.992;8.820;2022-09-01T12:22:11;26.70;47.30
48043;DHT22;33988;47.992;8.820;2022-09-01T12:24:45;26.80;47.20
48043;DHT22;33988;47.992;8.820;2022-09-01T12:27:16;26.80;47.30
48043;DHT22;33988;47.992;8.820;2022-09-01T12:29:46;26.80;47.00
48043;DHT22;33988;47.992;8.820;2022-09-01T12:32:16;26.70;46.70
48043;DHT22;33988;47.992;8.820;2022-09-01T12:34:58;26.60;46.40
48043;DHT22;33988;47.992;8.820;2022-09-01T12:37:37;26.60;46.70
48043;DHT22;33988;47.992;8.820;2022-09-01T12:40:20;26.30;47.40
48043;DHT22;33988;47.992;8.820;2022-09-01T12:43:03;26.40;47.30
48043;DHT22;33988;47.992;8.820;2022-09-01T12:45:45;26.30;47.10
48043;DHT22;33988;47.992;8.820;2022-09-01T12:48:33;26.30;47.20
48043;DHT22;33988;47.992;8.820;2022-09-01T12:51:18;26.20;47.90
48043;DHT22;33988;47.992;8.820;2022-09-01T12:53:57;26.20;47.50
48043;DHT22;33988;47.992;8.820;2022-09-01T12:56:33;26.20;48.10
48043;DHT22;33988;47.992;8.820;2022-09-01T12:59:23;26.20;47.60
48043;DHT22;33988;47.992;8.820;2022-09-01T13:02:26;26.20;47.50
48043;DHT22;33988;47.992;8.820;2022-09-01T13:07:56;26.10;47.00
48043;DHT22;33988;47.992;8.820;2022-09-01T13:10:31;26.00;47.00
48043;DHT22;33988;47.992;8.820;2022-09-01T13:13:03;26.00;46.80
48043;DHT22;33988;47.992;8.820;2022-09-01T13:15:32;25.90;47.10
48043;DHT22;33988;47.992;8.820;2022-09-01T13:18:02;25.80;47.30
48043;DHT22;33988;47.992;8.820;2022-09-01T13:20:29;25.80;47.70
48043;DHT22;33988;47.992;8.820;2022-09-01T13:22:57;25.80;47.90
48043;DHT22;33988;47.992;8.820;2022-09-01T13:25:24;25.70;47.80
48043;DHT22;33988;47.992;8.820;2022-09-01T13:27:52;25.70;48.10
48043;DHT22;33988;47.992;8.820;2022-09-01T13:30:24;25.70;48.50
48043;DHT22;33988;47.992;8.820;2022-09-01T13:32:57;25.70;48.80
48043;DHT22;33988;47.992;8.820;2022-09-01T13:35:44;25.70;48.60
48043;DHT22;33988;47.992;8.820;2022-09-01T13:38:13;25.70;48.40
48043;DHT22;33988;47.992;8.820;2022-09-01T13:40:46;25.80;48.00
48043;DHT22;33988;47.992;8.820;2022-09-01T13:43:21;25.80;48.00
48043;DHT22;33988;47.992;8.820;2022-09-01T13:45:49;25.80;47.90
48043;DHT22;33988;47.992;8.820;2022-09-01T13:48:17;25.80;48.20
48043;DHT22;33988;47.992;8.820;2022-09-01T13:50:49;25.80;48.50
48043;DHT22;33988;47.992;8.820;2022-09-01T13:53:40;25.80;48.30
48043;DHT22;33988;47.992;8.820;2022-09-01T13:56:07;25.80;48.10
48043;DHT22;33988;47.992;8.820;2022-09-01T13:58:36;25.70;48.00
48043;DHT22;33988;47.992;8.820;2022-09-01T14:01:06;25.70;47.90
48043;DHT22;33988;47.992;8.820;2022-09-01T14:03:34;25.60;47.90
48043;DHT22;33988;47.992;8.820;2022-09-01T14:06:07;25.60;47.80
48043;DHT22;33988;47.992;8.820;2022-09-01T14:08:34;25.50;48.00
48043;DHT22;33988;47.992;8.820;2022-09-01T14:11:03;25.50;48.20
48043;DHT22;33988;47.992;8.820;2022-09-01T14:13:30;25.50;48.10
48043;DHT22;33988;47.992;8.820;2022-09-01T14:15:58;25.50;48.00
48043;DHT22;33988;47.992;8.820;2022-09-01T14:18:26;25.50;47.90
48043;DHT22;33988;47.992;8.820;2022-09-01T14:21:02;25.50;48.00
48043;DHT22;33988;47.992;8.820;2022-09-01T14:23:32;25.50;48.20
48043;DHT22;33988;47.992;8.820;2022-09-01T14:26:01;25.50;48.40
48043;DHT22;33988;47.992;8.820;2022-09-01T14:28:28;25.50;48.30
48043;DHT22;33988;47.992;8.820;2022-09-01T14:30:55;25.50;48.30
48043;DHT22;33988;47.992;8.820;2022-09-01T14:33:24;25.50;48.10
48043;DHT22;33988;47.992;8.820;2022-09-01T14:35:52;25.50;48.00
48043;DHT22;33988;47.992;8.820;2022-09-01T14:38:21;25.40;47.80
48043;DHT22;33988;47.992;8.820;2022-09-01T14:40:54;25.40;47.80
48043;DHT22;33988;47.992;8.820;2022-09-01T14:43:26;25.30;47.40
48043;DHT22;33988;47.992;8.820;2022-09-01T14:46:08;25.30;47.90
48043;DHT22;33988;47.992;8.820;2022-09-01T14:48:39;25.30;48.10
48043;DHT22;33988;47.992;8.820;2022-09-01T14:51:07;25.30;48.20
48043;DHT22;33988;47.992;8.820;2022-09-01T14:53:35;25.20;48.00
48043;DHT22;33988;47.992;8.820;2022-09-01T14:56:07;25.20;48.10
48043;DHT22;33988;47.992;8.820;2022-09-01T14:58:37;25.20;48.10
48043;DHT22;33988;47.992;8.820;2022-09-01T15:01:06;25.10;48.30
48043;DHT22;33988;47.992;8.820;2022-09-01T15:03:54;25.10;48.30
48043;DHT22;33988;47.992;8.820;2022-09-01T15:06:21;25.10;48.10
48043;DHT22;33988;47.992;8.820;2022-09-01T15:08:48;25.00;48.10
48043;DHT22;33988;47.992;8.820;2022-09-01T15:11:18;25.00;48.20
48043;DHT22;33988;47.992;8.820;2022-09-01T15:13:47;25.00;48.40
48043;DHT22;33988;47.992;8.820;2022-09-01T15:16:20;24.90;48.50
48043;DHT22;33988;47.992;8.820;2022-09-01T15:18:51;24.90;48.50
48043;DHT22;33988;47.992;8.820;2022-09-01T15:21:27;24.90;49.00
48043;DHT22;33988;47.992;8.820;2022-09-01T15:23:56;24.80;49.10
48043;DHT22;33988;47.992;8.820;2022-09-01T15:26:25;24.80;49.00
48043;DHT22;33988;47.992;8.820;2022-09-01T15:28:55;24.90;49.20
48043;DHT22;33988;47.992;8.820;2022-09-01T15:31:28;24.80;49.20
48043;DHT22;33988;47.992;8.820;2022-09-01T15:34:00;24.80;49.20
48043;DHT22;33988;47.992;8.820;2022-09-01T15:36:29;24.80;49.80
48043;DHT22;33988;47.992;8.820;2022-09-01T15:38:57;24.80;49.30
48043;DHT22;33988;47.992;8.820;2022-09-01T15:41:27;24.80;49.10
48043;DHT22;33988;47.992;8.820;2022-09-01T15:43:58;24.70;49.00
48043;DHT22;33988;47.992;8.820;2022-09-01T15:46:30;24.70;49.20
48043;DHT22;33988;47.992;8.820;2022-09-01T15:49:07;24.60;49.10
48043;DHT22;33988;47.992;8.820;2022-09-01T15:51:40;24.60;49.90
48043;DHT22;33988;47.992;8.820;2022-09-01T15:54:12;24.60;48.80
48043;DHT22;33988;47.992;8.820;2022-09-01T15:56:43;24.60;48.70
48043;DHT22;33988;47.992;8.820;2022-09-01T15:59:13;24.50;48.70
48043;DHT22;33988;47.992;8.820;2022-09-01T16:01:43;24.50;49.10
48043;DHT22;33988;47.992;8.820;2022-09-01T16:04:14;24.50;49.60
48043;DHT22;33988;47.992;8.820;2022-09-01T16:06:47;24.40;49.90
48043;DHT22;33988;47.992;8.820;2022-09-01T16:09:15;24.40;49.80
48043;DHT22;33988;47.992;8.820;2022-09-01T16:11:51;24.40;49.90
48043;DHT22;33988;47.992;8.820;2022-09-01T16:14:19;24.40;49.80
48043;DHT22;33988;47.992;8.820;2022-09-01T16:17:05;24.40;50.00
48043;DHT22;33988;47.992;8.820;2022-09-01T16:22:30;24.30;49.60
48043;DHT22;33988;47.992;8.820;2022-09-01T16:25:12;24.20;49.50
48043;DHT22;33988;47.992;8.820;2022-09-01T16:27:43;24.20;49.30
48043;DHT22;33988;47.992;8.820;2022-09-01T16:30:20;24.20;49.50
48043;DHT22;33988;47.992;8.820;2022-09-01T16:32:52;24.20;50.10
48043;DHT22;33988;47.992;8.820;2022-09-01T16:35:27;24.20;49.60
48043;DHT22;33988;47.992;8.820;2022-09-01T16:38:33;24.10;49.80
48043;DHT22;33988;47.992;8.820;2022-09-01T17:00:09;23.90;49.70
48043;DHT22;33988;47.992;8.820;2022-09-01T17:05:44;23.90;50.20
48043;DHT22;33988;47.992;8.820;2022-09-01T17:08:32;23.90;50.20
48043;DHT22;33988;47.992;8.820;2022-09-01T17:11:21;23.90;50.50
48043;DHT22;33988;47.992;8.820;2022-09-01T17:13:54;23.90;50.40
48043;DHT22;33988;47.992;8.820;2022-09-01T17:16:33;23.90;50.40
48043;DHT22;33988;47.992;8.820;2022-09-01T17:19:16;23.90;50.40
48043;DHT22;33988;47.992;8.820;2022-09-01T17:21:49;23.80;50.90
48043;DHT22;33988;47.992;8.820;2022-09-01T17:24:48;23.80;50.80
48043;DHT22;33988;47.992;8.820;2022-09-01T17:30:15;23.70;50.90
48043;DHT22;33988;47.992;8.820;2022-09-01T17:33:06;23.70;51.10
48043;DHT22;33988;47.992;8.820;2022-09-01T17:44:54;23.60;51.20
48043;DHT22;33988;47.992;8.820;2022-09-01T17:47:44;23.50;50.80
48043;DHT22;33988;47.992;8.820;2022-09-01T17:50:32;23.50;51.00
48043;DHT22;33988;47.992;8.820;2022-09-01T17:59:34;23.30;51.80
48043;DHT22;33988;47.992;8.820;2022-09-01T18:02:47;23.40;51.80
48043;DHT22;33988;47.992;8.820;2022-09-01T18:05:43;23.30;51.90
48043;DHT22;33988;47.992;8.820;2022-09-01T18:08:41;23.20;51.90